Ouargla, Algeria
Current Conditions -  °F | °C
As of 10:00 PM on Wednesday 22 Oct 2014 (Local Time) from DAUU Reporting Station
Clear Clear  
Wind Chill: 75°   Ceiling: Unl
Heat Index: 75°   Visibility: 6mi
Dew Point: 36°   Wind: 0mph
Humidity: 24%   Direction: NA
Pressure: 30"   Gusts: NA
Location:  31.92°N, 5.4°E
Report Text: DAUU 222100Z 00000KT CAVOK 24/02 Q1016
Loading
Personal Weather Stations






























Interactive Weather Map New forecast layout! Learn more

10-Day Weather Forecast

Advertisements
Track Severe Weather on mobile